Home > Products > Valid Products > MTR

000
SAUS43 KEAX 240759 COR
MTRCDJ
METAR KCDJ 240752Z AUTO 19004KT 13/13 A3009 RMK AO1 SLP184 T01330128





000
SAUS43 KEAX 240700 COR
MTRCDJ
METAR KCDJ 240652Z AUTO 20004KT 14/13 A3008 RMK AO1 SLP182 T01390133





000
SAUS43 KEAX 240556
MTRCDJ
METAR KCDJ 240552Z AUTO 19004KT 13/12 A3008 RMK AO1 SLP185 T01280122
10156 20094 401830094 58001





000
SAUS43 KEAX 240500 COR
MTRCDJ
METAR KCDJ 240452Z AUTO 00000KT 10/09 A3009 RMK AO1 SLP187 T01000094





000
SAUS43 KEAX 240500 COR
MTRCDJ
METAR KCDJ 240452Z AUTO 00000KT 10/09 A3009 RMK AO1 SLP187 T01000094





000
SAUS43 KEAX 240400 COR
MTRCDJ
METAR KCDJ 240352Z AUTO 00000KT 10/09 A3009 RMK AO1 SLP190 T01000094





000
SAUS43 KEAX 240400 COR
MTRCDJ
METAR KCDJ 240352Z AUTO 00000KT 10/09 A3009 RMK AO1 SLP190 T01000094





000
SAUS43 KEAX 240256
MTRCDJ
METAR KCDJ 240252Z AUTO 00000KT 11/11 A3009 RMK AO1 SLP188 T01110106
51008





000
SAUS43 KEAX 240256
MTRCDJ
METAR KCDJ 240252Z AUTO 00000KT 11/11 A3009 RMK AO1 SLP188 T01110106
51008





000
SAUS43 KEAX 240200 COR
MTRCDJ
METAR KCDJ 240152Z AUTO 00000KT 12/11 A3008 RMK AO1 SLP186 T01220111





000
SAUS43 KEAX 240200 COR
MTRCDJ
METAR KCDJ 240152Z AUTO 00000KT 12/11 A3008 RMK AO1 SLP186 T01220111





000
SAUS43 KEAX 240059 COR
MTRCDJ
METAR KCDJ 240052Z AUTO 00000KT 14/13 A3007 RMK AO1 SLP183 T01390128





000
SAUS43 KEAX 240000 COR
MTRCDJ
METAR KCDJ 232352Z AUTO 00000KT 16/14 A3006 RMK AO1 SLP180 T01560139
10183 20156 53001





000
SAUS43 KEAX 232300 COR
MTRCDJ
METAR KCDJ 232252Z AUTO 20004KT 17/15 A3005 RMK AO1 SLP174 T01720150





000
SAUS43 KEAX 232156
MTRCDJ
METAR KCDJ 232152Z AUTO 20004KT 18/15 A3006 RMK AO1 SLP175 T01830150





000
SAUS43 KEAX 232056
MTRCDJ
METAR KCDJ 232052Z AUTO 20005KT 18/15 A3006 RMK AO1 SLP177 T01830150
56014





000
SAUS43 KEAX 231956
MTRCDJ
METAR KCDJ 231952Z AUTO 20005KT 18/14 A3006 RMK AO1 SLP177 T01830144





000
SAUS43 KEAX 231956
MTRCDJ
METAR KCDJ 231952Z AUTO 20005KT 18/14 A3006 RMK AO1 SLP177 T01830144





000
SAUS43 KEAX 231856
MTRCDJ
METAR KCDJ 231852Z AUTO VRB06KT 18/14 A3008 RMK AO1 SLP183 T01780139





000
SAUS43 KEAX 231856
MTRCDJ
METAR KCDJ 231852Z AUTO VRB06KT 18/14 A3008 RMK AO1 SLP183 T01780139





000
SAUS43 KEAX 231800 COR
MTRCDJ
METAR KCDJ 231752Z AUTO 19009KT 18/14 A3010 RMK AO1 SLP191 T01780139
10178 20122 58004





000
SAUS43 KEAX 231800 COR
MTRCDJ
METAR KCDJ 231752Z AUTO 19009KT 18/14 A3010 RMK AO1 SLP191 T01780139
10178 20122 58004





000
SAUS43 KEAX 231700 COR
MTRCDJ
METAR KCDJ 231652Z AUTO 19009KT 18/13 A3012 RMK AO1 SLP196 T01780133





000
SAUS43 KEAX 231700 COR
MTRCDJ
METAR KCDJ 231652Z AUTO 19009KT 18/13 A3012 RMK AO1 SLP196 T01780133





000
SAUS43 KEAX 231556
MTRCDJ
METAR KCDJ 231552Z AUTO 19008KT 17/13 A3012 RMK AO1 SLP198 T01720133





000
SAUS43 KEAX 231500 COR
MTRCDJ
METAR KCDJ 231452Z AUTO 19008KT 16/12 A3011 RMK AO1 SLP195 T01560117
53007





000
SAUS43 KEAX 231400 COR
MTRCDJ
METAR KCDJ 231352Z AUTO 17005KT 13/11 A3011 RMK AO1 SLP196 T01280106





000
SAUS43 KEAX 231259 COR
MTRCDJ
METAR KCDJ 231252Z AUTO 19004KT 12/10 A3009 RMK AO1 SLP187 T01220100





000
SAUS43 KEAX 231156
MTRCDJ
METAR KCDJ 231152Z AUTO 15005KT 12/09 A3009 RMK AO1 SLP187 T01220094
10128 20122 58010





000
SAUS43 KEAX 231056
MTRCDJ
METAR KCDJ 231052Z AUTO 18007KT 13/09 A3012 RMK AO1 SLP197 T01280089





000
SAUS43 KEAX 231000 COR
MTRCDJ
METAR KCDJ 230952Z AUTO 00000KT 12/09 A3013 RMK AO1 SLP200 T01220089





000
SAUS43 KEAX 231000 COR
MTRCDJ
METAR KCDJ 230952Z AUTO 00000KT 12/09 A3013 RMK AO1 SLP200 T01220089





000
SAUS43 KEAX 230900 COR
MTRCDJ
METAR KCDJ 230852Z AUTO 18004KT 13/07 A3012 RMK AO1 SLP197 T01280072
56006





000
SAUS43 KEAX 230756
MTRCDJ
METAR KCDJ 230752Z AUTO 16006KT 13/07 A3013 RMK AO1 SLP199 T01280067





000
SAUS43 KEAX 230700 COR
MTRCDJ
METAR KCDJ 230652Z AUTO 15005KT 12/07 A3013 RMK AO1 SLP201 T01220067





000
SAUS43 KEAX 230600 COR
MTRCDJ
METAR KCDJ 230552Z AUTO 15006KT 12/07 A3014 RMK AO1 SLP204 T01220067
10172 20122 402060078 58005





000
SAUS43 KEAX 230456
MTRCDJ
METAR KCDJ 230452Z AUTO 13003KT 13/07 A3015 RMK AO1 SLP208 T01280067





000
SAUS43 KEAX 230456
MTRCDJ
METAR KCDJ 230452Z AUTO 13003KT 13/07 A3015 RMK AO1 SLP208 T01280067





000
SAUS43 KEAX 230400 COR
MTRCDJ
METAR KCDJ 230352Z AUTO 13005KT 14/07 A3016 RMK AO1 SLP210 T01390072





000
SAUS43 KEAX 230400 COR
MTRCDJ
METAR KCDJ 230352Z AUTO 13005KT 14/07 A3016 RMK AO1 SLP210 T01390072





000
SAUS43 KEAX 230300 COR
MTRCDJ
METAR KCDJ 230252Z AUTO 14005KT 15/08 A3016 RMK AO1 SLP212 T01500078
51004





000
SAUS43 KEAX 230200 COR
MTRCDJ
METAR KCDJ 230152Z AUTO 14006KT 16/08 A3015 RMK AO1 SLP211 T01560078





000
SAUS43 KEAX 230200 COR
MTRCDJ
METAR KCDJ 230152Z AUTO 14006KT 16/08 A3015 RMK AO1 SLP211 T01560078





000
SAUS43 KEAX 230056
MTRCDJ
METAR KCDJ 230052Z AUTO 13005KT 16/08 A3016 RMK AO1 SLP212 T01610078





000
SAUS43 KEAX 230056
MTRCDJ
METAR KCDJ 230052Z AUTO 13005KT 16/08 A3016 RMK AO1 SLP212 T01610078





000
SAUS43 KEAX 222356
MTRCDJ
METAR KCDJ 222352Z AUTO 13005KT 17/08 A3015 RMK AO1 SLP209 T01720083
10206 20172 51001





000
SAUS43 KEAX 222356
MTRCDJ
METAR KCDJ 222352Z AUTO 13005KT 17/08 A3015 RMK AO1 SLP209 T01720083
10206 20172 51001





000
SAUS43 KEAX 222300 COR
MTRCDJ
METAR KCDJ 222252Z AUTO 13005KT 19/08 A3015 RMK AO1 SLP207 T01890083





000
SAUS43 KEAX 222300 COR
MTRCDJ
METAR KCDJ 222252Z AUTO 13005KT 19/08 A3015 RMK AO1 SLP207 T01890083





000
SAUS43 KEAX 222156
MTRCDJ
METAR KCDJ 222152Z AUTO 13008KT 20/09 A3015 RMK AO1 SLP207 T02000089





000
SAUS43 KEAX 222100 COR
MTRCDJ
METAR KCDJ 222052Z AUTO 13010G15KT 21/09 A3014 RMK AO1 SLP205
T02060089 56025





000
SAUS43 KEAX 222000 COR
MTRCDJ
METAR KCDJ 221952Z AUTO 13009G15KT 20/09 A3016 RMK AO1 SLP209
T02000089





000
SAUS43 KEAX 221856
MTRCDJ
METAR KCDJ 221852Z AUTO VRB05G14KT 19/09 A3019 RMK AO1 SLP222
T01890089





000
SAUS43 KEAX 221800 COR
MTRCDJ
METAR KCDJ 221752Z AUTO 14005KT 18/09 A3022 RMK AO1 SLP232 T01830089
10183 20078 58014





000
SAUS43 KEAX 221800 COR
MTRCDJ
METAR KCDJ 221752Z AUTO 14005KT 18/09 A3022 RMK AO1 SLP232 T01830089
10183 20078 58014





000
SAUS43 KEAX 221656
MTRCDJ
METAR KCDJ 221652Z AUTO 14006KT 16/08 A3024 RMK AO1 SLP240 T01610083





000
SAUS43 KEAX 221656
MTRCDJ
METAR KCDJ 221652Z AUTO 14006KT 16/08 A3024 RMK AO1 SLP240 T01610083





000
SAUS43 KEAX 221556
MTRCDJ
METAR KCDJ 221552Z AUTO 15008KT 14/08 A3026 RMK AO1 SLP246 T01440078





000
SAUS43 KEAX 221556
MTRCDJ
METAR KCDJ 221552Z AUTO 15008KT 14/08 A3026 RMK AO1 SLP246 T01440078





000
SAUS43 KEAX 221459 COR
MTRCDJ
METAR KCDJ 221452Z AUTO VRB05KT 12/06 A3026 RMK AO1 SLP248 T01170061
50003





000
SAUS43 KEAX 221400 COR
MTRCDJ
METAR KCDJ 221352Z AUTO 14007KT 09/06 A3027 RMK AO1 SLP250 T00940056





000
SAUS43 KEAX 221259 COR
MTRCDJ
METAR KCDJ 221252Z AUTO 12004KT 08/04 A3025 RMK AO1 SLP246 T00780044





000
SAUS43 KEAX 221156
MTRCDJ
METAR KCDJ 221152Z AUTO 12005KT 08/04 A3025 RMK AO1 SLP244 T00780044
10111 20078 53018





000
SAUS43 KEAX 221100 COR
MTRCDJ
METAR KCDJ 221052Z AUTO 12004KT 08/04 A3023 RMK AO1 SLP234 T00830044





000
SAUS43 KEAX 221100 COR
MTRCDJ
METAR KCDJ 221052Z AUTO 12004KT 08/04 A3023 RMK AO1 SLP234 T00830044





000
SAUS43 KEAX 220956
MTRCDJ
METAR KCDJ 220952Z AUTO 12005KT 09/05 A3021 RMK AO1 SLP226 T00890050





000
SAUS43 KEAX 220956
MTRCDJ
METAR KCDJ 220952Z AUTO 12005KT 09/05 A3021 RMK AO1 SLP226 T00890050





000
SAUS43 KEAX 220900 COR
MTRCDJ
METAR KCDJ 220852Z AUTO 12004KT 09/05 A3020 RMK AO1 SLP222 T00940050
50006





000
SAUS43 KEAX 220800 COR
MTRCDJ
METAR KCDJ 220752Z AUTO VRB03KT 09/06 A3020 RMK AO1 SLP224 T00940056





000
SAUS43 KEAX 220700 COR
MTRCDJ
METAR KCDJ 220652Z AUTO 00000KT 10/06 A3019 RMK AO1 SLP220 T01000056





000
SAUS43 KEAX 220559 COR
MTRCDJ
METAR KCDJ 220552Z AUTO VRB04KT 11/06 A3018 RMK AO1 SLP216 T01060061
10178 20106 402330044 51005





000
SAUS43 KEAX 220559 COR
MTRCDJ
METAR KCDJ 220552Z AUTO VRB04KT 11/06 A3018 RMK AO1 SLP216 T01060061
10178 20106 402330044 51005





000
SAUS43 KEAX 220500 COR
MTRCDJ
METAR KCDJ 220452Z AUTO 12004KT 12/06 A3018 RMK AO1 SLP216 T01170061





000
SAUS43 KEAX 220500 COR
MTRCDJ
METAR KCDJ 220452Z AUTO 12004KT 12/06 A3018 RMK AO1 SLP216 T01170061





000
SAUS43 KEAX 220356
MTRCDJ
METAR KCDJ 220352Z AUTO 11003KT 12/07 A3017 RMK AO1 SLP215 T01220067





000
SAUS43 KEAX 220356
MTRCDJ
METAR KCDJ 220352Z AUTO 11003KT 12/07 A3017 RMK AO1 SLP215 T01220067





000
SAUS43 KEAX 220259 COR
MTRCDJ
METAR KCDJ 220252Z AUTO VRB04KT 13/07 A3016 RMK AO1 SLP214 T01330072
53018





000
SAUS43 KEAX 220156
MTRCDJ
METAR KCDJ 220152Z AUTO 10004KT 15/07 A3014 RMK AO1 SLP207 T01500072





000
SAUS43 KEAX 220156
MTRCDJ
METAR KCDJ 220152Z AUTO 10004KT 15/07 A3014 RMK AO1 SLP207 T01500072





000
SAUS43 KEAX 220100 COR
MTRCDJ
METAR KCDJ 220052Z AUTO 10004KT 16/08 A3013 RMK AO1 SLP204 T01610078





000
SAUS43 KEAX 212359 COR
MTRCDJ
METAR KCDJ 212352Z AUTO VRB03KT 18/08 A3011 RMK AO1 SLP197 T01780078
10233 20178 53004





000
SAUS43 KEAX 212300 COR
MTRCDJ
METAR KCDJ 212252Z AUTO 11003KT 21/08 A3011 RMK AO1 SLP194 T02110078





000
SAUS43 KEAX 212300 COR
MTRCDJ
METAR KCDJ 212252Z AUTO 11003KT 21/08 A3011 RMK AO1 SLP194 T02110078





000
SAUS43 KEAX 212156
MTRCDJ
METAR KCDJ 212152Z AUTO 13004KT 22/07 A3010 RMK AO1 SLP192 T02170072





000
SAUS43 KEAX 212156
MTRCDJ
METAR KCDJ 212152Z AUTO 13004KT 22/07 A3010 RMK AO1 SLP192 T02170072





000
SAUS43 KEAX 212059 COR
MTRCDJ
METAR KCDJ 212052Z AUTO 08003KT 22/07 A3010 RMK AO1 SLP191 T02220072
56011





000
SAUS43 KEAX 212058 COR
MTRCDJ
METAR KCDJ 212052Z AUTO 08003KT 22/07 A3010 RMK AO1 SLP191 T02220072
56011





000
SAUS43 KEAX 212057 COR
MTRCDJ
METAR KCDJ 212052Z AUTO 08003KT 22/07 A3010 RMK AO1 SLP191 T02220072
56011





000
SAUS43 KEAX 212056
MTRCDJ
METAR KCDJ 212052Z AUTO 08003KT 22/07 A3010 RMK AO1 SLP191 T02220072
56011





000
SAUS43 KEAX 212000 COR
MTRCDJ
METAR KCDJ 211952Z AUTO 00000KT 22/08 A3010 RMK AO1 SLP193 T02170083





000
SAUS43 KEAX 212000 COR
MTRCDJ
METAR KCDJ 211952Z AUTO 00000KT 22/08 A3010 RMK AO1 SLP193 T02170083





000
SAUS43 KEAX 211900 COR
MTRCDJ
METAR KCDJ 211852Z AUTO VRB03KT 22/07 A3011 RMK AO1 SLP196 T02220072





000
SAUS43 KEAX 211756
MTRCDJ
METAR KCDJ 211752Z AUTO VRB03KT 21/09 A3013 RMK AO1 SLP202 T02110094
10211 20044 58007





000
SAUS43 KEAX 211659 COR
MTRCDJ
METAR KCDJ 211652Z AUTO 14003KT 18/09 A3015 RMK AO1 SLP208 T01830089





000
SAUS43 KEAX 211659 COR
MTRCDJ
METAR KCDJ 211652Z AUTO 14003KT 18/09 A3015 RMK AO1 SLP208 T01830089





000
SAUS43 KEAX 211658 COR
MTRCDJ
METAR KCDJ 211652Z AUTO 14003KT 18/09 A3015 RMK AO1 SLP208 T01830089





000
SAUS43 KEAX 211658 COR
MTRCDJ
METAR KCDJ 211652Z AUTO 14003KT 18/09 A3015 RMK AO1 SLP208 T01830089





000
SAUS43 KEAX 211657 COR
MTRCDJ
METAR KCDJ 211652Z AUTO 14003KT 18/09 A3015 RMK AO1 SLP208 T01830089





000
SAUS43 KEAX 211657 COR
MTRCDJ
METAR KCDJ 211652Z AUTO 14003KT 18/09 A3015 RMK AO1 SLP208 T01830089





000
SAUS43 KEAX 211656
MTRCDJ
METAR KCDJ 211652Z AUTO 14003KT 18/09 A3015 RMK AO1 SLP208 T01830089





000
SAUS43 KEAX 211656
MTRCDJ
METAR KCDJ 211652Z AUTO 14003KT 18/09 A3015 RMK AO1 SLP208 T01830089





000
SAUS43 KEAX 211559 COR
MTRCDJ
METAR KCDJ 211552Z AUTO 16003KT 16/09 A3015 RMK AO1 SLP211 T01610094





000
SAUS43 KEAX 211559 COR
MTRCDJ
METAR KCDJ 211552Z AUTO 16003KT 16/09 A3015 RMK AO1 SLP211 T01610094





000
SAUS43 KEAX 211459
MTRCDJ
METAR KCDJ 211452Z AUTO 00000KT 12/08 A3015 RMK AO1 SLP212 T01220078
51008





000
SAUS43 KEAX 211400 COR
MTRCDJ
METAR KCDJ 211352Z AUTO 00000KT 08/07 A3015 RMK AO1 SLP214 T00830072





000
SAUS43 KEAX 211256
MTRCDJ
METAR KCDJ 211252Z AUTO 00000KT 04/03 A3014 RMK AO1 SLP209 T00440033





000
SAUS43 KEAX 211200 COR
MTRCDJ
METAR KCDJ 211152Z AUTO 00000KT 05/03 A3013 RMK AO1 SLP206 T00500033
10072 20050 53014





000
SAUS43 KEAX 211200 COR
MTRCDJ
METAR KCDJ 211152Z AUTO 00000KT 05/03 A3013 RMK AO1 SLP206 T00500033
10072 20050 53014





000
SAUS43 KEAX 211100 COR
MTRCDJ
METAR KCDJ 211052Z AUTO 00000KT 06/04 A3011 RMK AO1 SLP197 T00560039





000
SAUS43 KEAX 211100 COR
MTRCDJ
METAR KCDJ 211052Z AUTO 00000KT 06/04 A3011 RMK AO1 SLP197 T00560039





000
SAUS43 KEAX 210956
MTRCDJ
METAR KCDJ 210952Z AUTO 00000KT 06/04 A3010 RMK AO1 SLP190 T00560044





000
SAUS43 KEAX 210956
MTRCDJ
METAR KCDJ 210952Z AUTO 00000KT 06/04 A3010 RMK AO1 SLP190 T00560044





000
SAUS43 KEAX 210900 COR
MTRCDJ
METAR KCDJ 210852Z AUTO 00000KT 06/04 A3009 RMK AO1 SLP186 T00610044
50003





    US Dept of Commerce
    National Oceanic and Atmospheric Administration
    National Weather Service
    1325 East West Highway
    Silver Spring, MD 20910
    Page Author: NWS Internet Services Team
Disclaimer
Information Quality
Credits
Glossary
Privacy Policy
Freedom of Information Act (FOIA)
About Us
Career Opportunities